createdAt,value
2023-02-15T00:01:01.961Z,99.18
2023-02-15T00:02:42.341Z,99.23
2023-02-15T00:04:22.711Z,99.29
2023-02-15T00:06:03.366Z,99.25
2023-02-15T00:07:43.394Z,99.25
2023-02-15T00:09:23.816Z,99.28
2023-02-15T00:11:04.184Z,99.27
2023-02-15T00:12:44.554Z,99.26
2023-02-15T00:14:24.883Z,99.26
2023-02-15T00:16:05.244Z,99.23
2023-02-15T00:17:45.460Z,99.27
2023-02-15T00:19:25.888Z,99.28
2023-02-15T00:21:06.268Z,99.31
2023-02-15T00:22:46.651Z,99.3
2023-02-15T00:24:27.172Z,99.26
2023-02-15T00:26:07.502Z,99.23
2023-02-15T00:27:47.995Z,99.28
2023-02-15T00:29:28.377Z,99.22
2023-02-15T00:31:08.877Z,99.27
2023-02-15T00:32:49.195Z,99.26
2023-02-15T00:34:29.606Z,99.26
2023-02-15T00:36:10.015Z,99.19
2023-02-15T00:37:50.549Z,99.13
2023-02-15T00:39:31.045Z,99.11
2023-02-15T00:41:11.500Z,99.11
2023-02-15T00:42:51.965Z,99.1
2023-02-15T00:44:32.261Z,99.08
2023-02-15T00:46:12.609Z,99.08
2023-02-15T00:47:52.945Z,99.1
2023-02-15T00:49:33.470Z,99.1
2023-02-15T00:51:13.965Z,99.14
2023-02-15T00:52:54.464Z,99.17
2023-02-15T00:54:34.934Z,99.2
2023-02-15T00:56:15.394Z,99.22
2023-02-15T00:57:55.905Z,99.13
2023-02-15T00:59:36.386Z,99.1
2023-02-15T01:01:16.918Z,99.05
2023-02-15T01:02:57.417Z,98.97
2023-02-15T01:04:37.858Z,98.98
2023-02-15T01:06:18.141Z,98.93
2023-02-15T01:07:58.679Z,98.91
2023-02-15T01:09:39.182Z,98.87
2023-02-15T01:11:19.687Z,98.87
2023-02-15T01:13:00.223Z,98.86
2023-02-15T01:14:40.670Z,98.75
2023-02-15T01:16:21.237Z,98.79
2023-02-15T01:18:01.686Z,98.8
2023-02-15T01:19:42.129Z,98.79
2023-02-15T01:21:22.483Z,98.84
2023-02-15T01:23:03.001Z,98.84
2023-02-15T01:24:43.529Z,98.76
2023-02-15T01:28:04.561Z,98.64
2023-02-15T01:29:45.099Z,98.61
2023-02-15T01:31:25.871Z,98.61
2023-02-15T01:33:06.210Z,98.63
2023-02-15T01:34:46.682Z,98.63
2023-02-15T01:36:27.165Z,98.66
2023-02-15T01:38:07.636Z,98.65
2023-02-15T01:39:48.081Z,98.63
2023-02-15T01:41:28.510Z,98.58
2023-02-15T01:43:08.966Z,98.64
2023-02-15T01:44:49.264Z,98.65
2023-02-15T01:46:29.804Z,98.67
2023-02-15T01:48:10.226Z,98.74
2023-02-15T01:49:50.733Z,98.7
2023-02-15T01:51:31.172Z,98.71
2023-02-15T01:53:11.673Z,98.71
2023-02-15T01:54:52.141Z,98.72
2023-02-15T01:56:32.581Z,98.71
2023-02-15T01:58:13.067Z,98.72
2023-02-15T01:59:53.526Z,98.65
2023-02-15T02:01:34.062Z,98.67
2023-02-15T02:03:14.505Z,98.66
2023-02-15T02:04:55.000Z,98.69
2023-02-15T02:06:35.400Z,98.67
2023-02-15T02:08:15.770Z,98.67
2023-02-15T02:09:56.103Z,98.51
2023-02-15T02:11:36.367Z,98.41
2023-02-15T02:13:16.813Z,98.31
2023-02-15T02:14:57.311Z,98.15
2023-02-15T02:16:37.736Z,98.06
2023-02-15T02:18:18.132Z,97.87
2023-02-15T02:19:58.619Z,97.79
2023-02-15T02:21:39.119Z,97.68
2023-02-15T02:23:19.653Z,97.62
2023-02-15T02:25:00.159Z,97.54
2023-02-15T02:26:40.588Z,97.47
2023-02-15T02:28:21.029Z,97.55
2023-02-15T02:30:01.516Z,97.58
2023-02-15T02:31:42.081Z,97.66
2023-02-15T02:33:22.413Z,97.75
2023-02-15T02:35:02.700Z,97.78
2023-02-15T02:38:23.470Z,97.83
2023-02-15T02:40:03.947Z,97.9
2023-02-15T02:41:44.412Z,97.97
2023-02-15T02:43:24.952Z,98.06
2023-02-15T02:45:05.347Z,98.12
2023-02-15T02:46:45.834Z,98.19
2023-02-15T02:48:26.284Z,98.22
2023-02-15T02:50:06.721Z,98.24
2023-02-15T02:51:47.186Z,98.18
2023-02-15T02:53:27.670Z,98.17
2023-02-15T02:55:08.044Z,98.18
2023-02-15T02:56:48.514Z,98.26
2023-02-15T02:58:28.930Z,98.31
2023-02-15T03:00:09.320Z,98.29
2023-02-15T03:01:49.894Z,98.38
2023-02-15T03:03:30.334Z,98.35
2023-02-15T03:05:10.811Z,98.39
2023-02-15T03:06:51.288Z,98.4
2023-02-15T03:08:31.759Z,98.43
2023-02-15T03:10:12.133Z,98.36
2023-02-15T03:11:52.559Z,98.44
2023-02-15T03:13:33.047Z,98.42
2023-02-15T03:15:13.493Z,98.36
2023-02-15T03:16:53.964Z,98.38
2023-02-15T03:18:34.551Z,98.38
2023-02-15T03:20:14.830Z,98.42
2023-02-15T03:21:55.125Z,98.36
2023-02-15T03:23:35.617Z,98.23
2023-02-15T03:25:16.181Z,98.07
2023-02-15T03:26:56.609Z,97.97
2023-02-15T03:28:37.119Z,97.86
2023-02-15T03:30:17.593Z,97.79
2023-02-15T03:31:58.219Z,97.8
2023-02-15T03:33:38.618Z,97.79
2023-02-15T03:35:19.060Z,97.78
2023-02-15T03:36:59.543Z,97.77
2023-02-15T03:38:40.064Z,97.75
2023-02-15T03:40:20.567Z,97.77
2023-02-15T03:42:00.929Z,97.77
2023-02-15T03:43:41.250Z,97.85
2023-02-15T03:47:02.241Z,97.97
2023-02-15T03:48:42.759Z,98.05
2023-02-15T03:50:23.235Z,97.99
2023-02-15T03:52:03.761Z,98.01
2023-02-15T03:53:44.258Z,97.99
2023-02-15T03:55:24.714Z,98.02
2023-02-15T03:57:05.176Z,98.09
2023-02-15T03:58:45.652Z,98.16
2023-02-15T04:00:26.162Z,98.21
2023-02-15T04:02:06.661Z,98.26
2023-02-15T04:03:47.013Z,98.3
2023-02-15T04:05:27.442Z,98.24
2023-02-15T04:07:07.948Z,98.22
2023-02-15T04:08:48.413Z,98.28
2023-02-15T04:10:28.898Z,98.33
2023-02-15T04:12:09.401Z,98.36
2023-02-15T04:13:49.950Z,98.41
2023-02-15T04:15:30.405Z,98.38
2023-02-15T04:17:11.042Z,98.38
2023-02-15T04:18:51.324Z,98.41
2023-02-15T04:20:31.798Z,98.44
2023-02-15T04:22:12.323Z,98.48
2023-02-15T04:23:52.680Z,98.46
2023-02-15T04:25:33.007Z,98.46
2023-02-15T04:27:13.297Z,98.51
2023-02-15T04:28:53.808Z,98.5
2023-02-15T04:30:34.282Z,98.49
2023-02-15T04:32:14.869Z,98.48
2023-02-15T04:33:55.307Z,98.49
2023-02-15T04:35:35.844Z,98.5
2023-02-15T04:37:16.367Z,98.5
2023-02-15T04:38:56.859Z,98.45
2023-02-15T04:40:37.268Z,98.3
2023-02-15T04:42:17.774Z,98.25
2023-02-15T04:43:58.246Z,98.15
2023-02-15T04:45:38.812Z,98.08
2023-02-15T04:47:19.171Z,98.08
2023-02-15T04:48:59.672Z,98.17
2023-02-15T04:50:40.149Z,98.23
2023-02-15T04:52:20.539Z,98.15
2023-02-15T04:54:01.033Z,98.15
2023-02-15T04:55:41.528Z,98.05
2023-02-15T04:57:22.015Z,98.1
2023-02-15T04:59:02.458Z,98.07
2023-02-15T05:00:42.937Z,98.04
2023-02-15T05:02:23.242Z,98.07
2023-02-15T05:04:03.727Z,98.09
2023-02-15T05:05:44.127Z,98.05
2023-02-15T05:07:24.427Z,98.07
2023-02-15T05:09:04.733Z,98.08
2023-02-15T05:10:45.098Z,98.16
2023-02-15T05:12:25.506Z,98.17
2023-02-15T05:14:05.983Z,98.19
2023-02-15T05:15:46.447Z,98.19
2023-02-15T05:17:26.984Z,98.07
2023-02-15T05:19:07.511Z,97.92
2023-02-15T05:20:48.018Z,97.78
2023-02-15T05:22:28.535Z,97.8
2023-02-15T05:24:09.045Z,97.76
2023-02-15T05:25:49.462Z,97.76
2023-02-15T05:27:29.940Z,97.8
2023-02-15T05:29:10.336Z,97.89
2023-02-15T05:30:50.904Z,98.01
2023-02-15T05:32:31.414Z,98.08
2023-02-15T05:34:11.610Z,98.15
2023-02-15T05:35:52.132Z,98.23
2023-02-15T05:37:32.547Z,98.34
2023-02-15T05:39:13.365Z,98.42
2023-02-15T05:40:53.492Z,98.41
2023-02-15T05:42:33.909Z,98.43
2023-02-15T05:44:14.405Z,98.44
2023-02-15T05:45:54.841Z,98.48
2023-02-15T05:47:35.225Z,98.47
2023-02-15T05:49:15.736Z,98.48
2023-02-15T05:50:56.208Z,98.43
2023-02-15T05:52:36.617Z,98.39
2023-02-15T05:54:17.127Z,98.33
2023-02-15T05:55:57.545Z,98.25
2023-02-15T05:57:38.083Z,98.22
2023-02-15T05:59:18.550Z,98.21
2023-02-15T06:00:59.049Z,98.21
2023-02-15T06:02:39.540Z,98.2
2023-02-15T06:04:20.061Z,98.24
2023-02-15T06:06:00.925Z,98.22
2023-02-15T06:07:40.882Z,98.2
2023-02-15T06:09:21.323Z,98.18
2023-02-15T06:11:01.834Z,98.1
2023-02-15T06:12:42.233Z,98.15
2023-02-15T06:14:22.676Z,98.13
2023-02-15T06:16:03.506Z,98.15
2023-02-15T06:17:43.537Z,98.12
2023-02-15T06:19:23.967Z,98.1
2023-02-15T06:21:04.527Z,98.01
2023-02-15T06:22:44.926Z,97.94
2023-02-15T06:24:25.547Z,97.94
2023-02-15T06:26:05.958Z,97.99
2023-02-15T06:27:46.661Z,97.99
2023-02-15T06:29:26.897Z,97.96
2023-02-15T06:31:07.526Z,98.03
2023-02-15T06:32:47.849Z,98.02
2023-02-15T06:34:28.237Z,97.95
2023-02-15T06:36:08.736Z,97.98
2023-02-15T06:37:49.250Z,98.02
2023-02-15T06:39:29.690Z,97.95
2023-02-15T06:41:10.223Z,97.95
2023-02-15T06:42:50.822Z,97.94
2023-02-15T06:44:31.194Z,97.99
2023-02-15T06:46:11.884Z,98
2023-02-15T06:47:52.199Z,98.09
2023-02-15T06:49:32.648Z,98.13
2023-02-15T06:51:13.142Z,98.16
2023-02-15T06:52:53.511Z,98.14
2023-02-15T06:54:33.836Z,98.08
2023-02-15T06:56:14.331Z,98.12
2023-02-15T06:57:54.461Z,98.12
2023-02-15T06:59:34.781Z,98.12
2023-02-15T07:01:15.261Z,97.93
2023-02-15T07:02:55.760Z,97.78
2023-02-15T07:04:36.273Z,97.68
2023-02-15T07:06:16.652Z,97.65
2023-02-15T07:07:57.240Z,97.74
2023-02-15T07:09:37.657Z,97.74
2023-02-15T07:11:18.124Z,97.72
2023-02-15T07:12:58.670Z,97.67
2023-02-15T07:14:39.092Z,97.65
2023-02-15T07:16:19.636Z,97.66
2023-02-15T07:18:00.158Z,97.62
2023-02-15T07:19:40.713Z,97.5
2023-02-15T07:21:21.242Z,97.47
2023-02-15T07:23:01.702Z,97.49
2023-02-15T07:24:42.185Z,97.53
2023-02-15T07:26:22.633Z,97.43
2023-02-15T07:28:03.082Z,97.4
2023-02-15T07:29:43.587Z,97.47
2023-02-15T07:31:24.071Z,97.48
2023-02-15T07:33:05.646Z,97.41
2023-02-15T07:34:45.094Z,97.4
2023-02-15T07:36:25.482Z,97.35
2023-02-15T07:38:05.800Z,97.22
2023-02-15T07:41:26.716Z,96.93
2023-02-15T07:43:06.953Z,96.94
2023-02-15T07:44:47.467Z,96.85
2023-02-15T07:46:28.088Z,96.84
2023-02-15T07:48:08.463Z,96.79
2023-02-15T07:49:48.939Z,96.67
2023-02-15T07:51:29.453Z,96.52
2023-02-15T07:53:09.898Z,96.35
2023-02-15T07:54:50.397Z,96.35
2023-02-15T07:56:33.272Z,96.39
2023-02-15T07:58:11.389Z,96.33
2023-02-15T07:59:51.713Z,96.41
2023-02-15T08:01:32.232Z,96.31
2023-02-15T08:03:12.916Z,96.4
2023-02-15T08:04:53.142Z,96.46
2023-02-15T08:06:33.673Z,96.4
2023-02-15T08:08:14.200Z,96.27
2023-02-15T08:09:54.639Z,96.24
2023-02-15T08:11:35.164Z,96.17
2023-02-15T08:13:15.701Z,96.16
2023-02-15T08:14:56.164Z,95.94
2023-02-15T08:16:36.794Z,95.74
2023-02-15T08:18:17.033Z,95.83
2023-02-15T08:19:57.466Z,95.65
2023-02-15T08:21:38.231Z,95.54
2023-02-15T08:23:18.546Z,95.31
2023-02-15T08:24:59.032Z,95.26
2023-02-15T08:26:41.899Z,95.05
2023-02-15T08:28:19.865Z,95.05
2023-02-15T08:30:00.413Z,94.97
2023-02-15T08:31:41.038Z,94.99
2023-02-15T08:33:21.350Z,95.18
2023-02-15T08:35:01.934Z,95.18
2023-02-15T08:36:42.324Z,95.12
2023-02-15T08:38:22.756Z,95.14
2023-02-15T08:40:03.344Z,94.87
2023-02-15T08:41:43.833Z,94.93
2023-02-15T08:43:24.360Z,94.83
2023-02-15T08:45:04.891Z,94.92
2023-02-15T08:46:45.186Z,94.83
2023-02-15T08:48:25.737Z,94.85
2023-02-15T08:50:06.229Z,94.83
2023-02-15T08:51:46.698Z,94.61
2023-02-15T08:53:30.254Z,94.51
2023-02-15T08:55:07.534Z,94.47
2023-02-15T08:56:47.943Z,94.22
2023-02-15T08:58:28.382Z,94.25
2023-02-15T09:00:08.871Z,94.12
2023-02-15T09:01:49.451Z,94.1
2023-02-15T09:03:29.761Z,94.15
2023-02-15T09:05:10.328Z,93.95
2023-02-15T09:06:50.783Z,93.98
2023-02-15T09:08:31.255Z,93.52
2023-02-15T09:10:11.687Z,93.67
2023-02-15T09:11:57.676Z,93.22
2023-02-15T09:13:32.711Z,93.02
2023-02-15T09:15:13.157Z,92.78
2023-02-15T09:16:53.633Z,93
2023-02-15T09:18:34.145Z,92.93
2023-02-15T09:20:14.589Z,93.15
2023-02-15T09:21:55.134Z,93.1
2023-02-15T09:23:35.554Z,93.16
2023-02-15T09:25:15.960Z,93.26
2023-02-15T09:26:56.315Z,93.02
2023-02-15T09:28:36.713Z,92.43
2023-02-15T09:30:17.363Z,92.24
2023-02-15T09:31:57.752Z,92.29
2023-02-15T09:33:38.197Z,91.71
2023-02-15T09:35:18.654Z,91.64
2023-02-15T09:36:59.131Z,92.05
2023-02-15T09:38:39.553Z,91.55
2023-02-15T09:40:20.001Z,91.62
2023-02-15T09:42:00.470Z,91.26
2023-02-15T09:43:40.914Z,91.17
2023-02-15T09:45:21.378Z,90.87
2023-02-15T09:47:01.850Z,90.97
2023-02-15T09:48:42.177Z,91.11
2023-02-15T09:50:22.451Z,91.3
2023-02-15T09:52:02.756Z,90.64
2023-02-15T09:53:43.015Z,90.13
2023-02-15T09:55:23.504Z,90.1
2023-02-15T09:57:03.932Z,89.68
2023-02-15T09:58:44.498Z,89.95
2023-02-15T10:00:24.905Z,89.95
2023-02-15T10:02:05.425Z,89.96
2023-02-15T10:03:45.897Z,89.77
2023-02-15T10:05:26.332Z,89.65
2023-02-15T10:07:06.729Z,89.14
2023-02-15T10:08:47.181Z,89.23
2023-02-15T10:10:27.743Z,89.13
2023-02-15T10:12:08.180Z,89.37
2023-02-15T10:13:48.596Z,88.93
2023-02-15T10:15:28.896Z,89.13
2023-02-15T10:17:09.397Z,89.49
2023-02-15T10:18:49.824Z,89.33
2023-02-15T10:20:30.229Z,89.8
2023-02-15T10:22:10.740Z,89.27
2023-02-15T10:23:51.273Z,88.89
2023-02-15T10:25:31.798Z,88.56
2023-02-15T10:27:12.186Z,88.43
2023-02-15T10:28:52.627Z,88.23
2023-02-15T10:30:33.122Z,88.11
2023-02-15T10:32:13.735Z,88.12
2023-02-15T10:33:53.956Z,87.6
2023-02-15T10:35:34.392Z,87.87
2023-02-15T10:37:14.754Z,88.38
2023-02-15T10:38:55.250Z,87.84
2023-02-15T10:40:35.694Z,87.78
2023-02-15T10:42:16.079Z,87.93
2023-02-15T10:43:56.552Z,87.36
2023-02-15T10:45:36.980Z,87.97
2023-02-15T10:47:17.486Z,87.68
2023-02-15T10:48:57.948Z,87.01
2023-02-15T10:50:38.345Z,87.27
2023-02-15T10:52:18.934Z,87.31
2023-02-15T10:53:59.235Z,87.5
2023-02-15T10:55:39.699Z,86.97
2023-02-15T10:57:20.162Z,86.61
2023-02-15T10:59:00.619Z,87.02
2023-02-15T11:00:40.939Z,86.7
2023-02-15T11:02:21.438Z,86.78
2023-02-15T11:04:01.846Z,87.34
2023-02-15T11:07:22.751Z,86.96
2023-02-15T11:09:03.169Z,86.72
2023-02-15T11:10:43.540Z,86.17
2023-02-15T11:12:23.973Z,86.36
2023-02-15T11:14:04.433Z,85.66
2023-02-15T11:15:44.997Z,85.62
2023-02-15T11:17:25.345Z,85.76
2023-02-15T11:19:05.876Z,85.58
2023-02-15T11:20:46.292Z,85.19
2023-02-15T11:22:26.703Z,85.21
2023-02-15T11:24:07.252Z,85.07
2023-02-15T11:25:47.781Z,84.38
2023-02-15T11:27:28.264Z,84.58
2023-02-15T11:29:08.652Z,84.46
2023-02-15T11:30:49.275Z,84.11
2023-02-15T11:32:29.657Z,84.41
2023-02-15T11:34:10.108Z,84.52
2023-02-15T11:35:50.611Z,84.34
2023-02-15T11:37:31.075Z,84.32
2023-02-15T11:39:11.558Z,83.81
2023-02-15T11:40:52.214Z,83.8
2023-02-15T11:42:32.342Z,83.59
2023-02-15T11:44:12.941Z,83.99
2023-02-15T11:45:53.448Z,83.71
2023-02-15T11:47:33.778Z,83.16
2023-02-15T11:49:14.242Z,83.36
2023-02-15T11:50:54.657Z,82.39
2023-02-15T11:52:35.131Z,82.82
2023-02-15T11:54:15.810Z,82.89
2023-02-15T11:55:56.156Z,82.84
2023-02-15T11:59:17.037Z,82.06
2023-02-15T12:00:57.486Z,81.81
2023-02-15T12:02:37.883Z,82.09
2023-02-15T12:04:18.377Z,82.23
2023-02-15T12:05:58.790Z,82.05
2023-02-15T12:07:39.105Z,81.13
2023-02-15T12:09:20.245Z,81.16
2023-02-15T12:11:00.285Z,80.87
2023-02-15T12:12:40.070Z,80.54
2023-02-15T12:14:20.550Z,80.16
2023-02-15T12:16:01.108Z,79.91
2023-02-15T12:17:41.507Z,79.66
2023-02-15T12:19:21.885Z,78.68
2023-02-15T12:21:02.605Z,78.56
2023-02-15T12:22:42.799Z,78.34
2023-02-15T12:24:23.228Z,78.91
2023-02-15T12:26:03.719Z,78.49
2023-02-15T12:27:44.121Z,78.28
2023-02-15T12:29:24.646Z,77.18
2023-02-15T12:31:05.619Z,76.34
2023-02-15T12:32:45.590Z,76.42
2023-02-15T12:34:25.881Z,75.59
2023-02-15T12:36:06.194Z,74.99
2023-02-15T12:37:46.640Z,75.2
2023-02-15T12:39:27.101Z,72.77
2023-02-15T12:41:07.628Z,73.3
2023-02-15T12:42:47.980Z,73.09
2023-02-15T12:44:28.410Z,72.69
2023-02-15T12:46:08.875Z,71.8
2023-02-15T12:47:49.419Z,71.17
2023-02-15T12:49:29.975Z,72.03
2023-02-15T12:51:10.928Z,70.1
2023-02-15T12:52:50.842Z,70.35
2023-02-15T12:54:31.392Z,71.96
2023-02-15T12:56:11.855Z,69.99
2023-02-15T12:57:52.283Z,70.18
2023-02-15T12:59:32.875Z,70.32
2023-02-15T13:01:13.438Z,70.8
2023-02-15T13:02:53.769Z,70.55
2023-02-15T13:04:34.247Z,69.4
2023-02-15T13:06:14.753Z,68.44
2023-02-15T13:07:55.224Z,69.22
2023-02-15T13:09:35.757Z,68.01
2023-02-15T13:11:16.228Z,68.64
2023-02-15T13:12:56.857Z,68.46
2023-02-15T13:14:37.209Z,69.12
2023-02-15T13:16:17.780Z,68.93
2023-02-15T13:17:58.296Z,68.93
2023-02-15T13:19:38.793Z,68.21
2023-02-15T13:21:19.194Z,68.88
2023-02-15T13:22:59.706Z,68.62
2023-02-15T13:24:40.134Z,68.89
2023-02-15T13:26:20.630Z,68.03
2023-02-15T13:28:01.157Z,67.3
2023-02-15T13:29:41.557Z,67.99
2023-02-15T13:31:22.123Z,67.94
2023-02-15T13:33:02.515Z,68.82
2023-02-15T13:34:43.009Z,68.11
2023-02-15T13:36:23.574Z,69.14
2023-02-15T13:38:04.064Z,69.24
2023-02-15T13:39:44.344Z,69.1
2023-02-15T13:41:24.899Z,68.54
2023-02-15T13:43:05.311Z,69.63
2023-02-15T13:44:45.744Z,69.89
2023-02-15T13:46:26.322Z,69.61
2023-02-15T13:48:06.669Z,69.92
2023-02-15T13:49:47.184Z,68.93
2023-02-15T13:51:27.698Z,69.9
2023-02-15T13:53:08.199Z,70.04
2023-02-15T13:54:48.628Z,69.21
2023-02-15T13:56:29.086Z,68.78
2023-02-15T13:58:09.586Z,68.64
2023-02-15T13:59:50.100Z,67.67
2023-02-15T14:01:30.782Z,68.67
2023-02-15T14:03:11.149Z,69.16
2023-02-15T14:04:51.526Z,70.07
2023-02-15T14:06:32.069Z,69.83
2023-02-15T14:08:14.512Z,68.81
2023-02-15T14:08:14.546Z,68.81
2023-02-15T14:08:14.556Z,68.81
2023-02-15T14:09:52.903Z,69.44
2023-02-15T14:11:33.196Z,68.87
2023-02-15T14:13:13.592Z,69.49
2023-02-15T14:14:54.017Z,68.98
2023-02-15T14:16:34.902Z,69.48
2023-02-15T14:18:14.957Z,69.43
2023-02-15T14:19:55.466Z,68.44
2023-02-15T14:21:35.886Z,69.84
2023-02-15T14:23:16.375Z,69.75
2023-02-15T14:24:56.862Z,68.81
2023-02-15T14:26:37.389Z,68.73
2023-02-15T14:28:17.940Z,68.93
2023-02-15T14:29:58.497Z,69.5
2023-02-15T14:31:38.912Z,69.68
2023-02-15T14:33:19.231Z,70.02
2023-02-15T14:34:59.961Z,70.11
2023-02-15T14:36:40.170Z,70.46
2023-02-15T14:38:20.627Z,70.87
2023-02-15T14:40:01.152Z,71.05
2023-02-15T14:41:41.630Z,71.67
2023-02-15T14:43:22.066Z,71.26
2023-02-15T14:45:02.495Z,71.79
2023-02-15T14:46:42.975Z,72.19
2023-02-15T14:48:23.503Z,72.14
2023-02-15T14:50:04.131Z,72.42
2023-02-15T14:51:44.406Z,72.65
2023-02-15T14:53:24.943Z,72.72
2023-02-15T14:55:05.548Z,72.67
2023-02-15T14:56:46.156Z,72.87
2023-02-15T14:58:26.523Z,72.48
2023-02-15T15:00:06.972Z,73.24
2023-02-15T15:01:47.448Z,73.45
2023-02-15T15:03:27.947Z,74.16
2023-02-15T15:05:08.464Z,73.72
2023-02-15T15:06:48.950Z,74
2023-02-15T15:08:29.385Z,74.17
2023-02-15T15:10:10.082Z,74
2023-02-15T15:11:50.345Z,74.19
2023-02-15T15:13:30.819Z,74.52
2023-02-15T15:15:11.422Z,74.61
2023-02-15T15:16:51.847Z,74.65
2023-02-15T15:18:32.291Z,74.93
2023-02-15T15:20:12.764Z,75.07
2023-02-15T15:21:53.249Z,74.93
2023-02-15T15:23:33.680Z,75.03
2023-02-15T15:25:14.191Z,74.99
2023-02-15T15:26:54.586Z,75.03
2023-02-15T15:28:35.228Z,75
2023-02-15T15:30:15.693Z,74.86
2023-02-15T15:31:56.110Z,74.66
2023-02-15T15:35:16.922Z,74.68
2023-02-15T15:36:57.419Z,74.68
2023-02-15T15:38:37.903Z,74.91
2023-02-15T15:40:18.512Z,75.27
2023-02-15T15:42:02.066Z,75.51
2023-02-15T15:43:39.475Z,75.93
2023-02-15T15:45:19.975Z,76.18
2023-02-15T15:47:00.584Z,76.78
2023-02-15T15:48:40.961Z,77.16
2023-02-15T15:50:21.434Z,77.67
2023-02-15T15:52:01.902Z,77.7
2023-02-15T15:53:42.339Z,78.41
2023-02-15T15:55:22.780Z,78.84
2023-02-15T15:57:03.232Z,79.21
2023-02-15T15:58:43.736Z,79.62
2023-02-15T16:00:24.093Z,80.04
2023-02-15T16:02:04.618Z,80.14
2023-02-15T16:03:45.023Z,80.62
2023-02-15T16:05:25.488Z,80.92
2023-02-15T16:07:05.891Z,81.29
2023-02-15T16:08:46.305Z,81.65
2023-02-15T16:10:26.830Z,81.95
2023-02-15T16:12:07.140Z,82.13
2023-02-15T16:13:47.595Z,82.45
2023-02-15T16:15:27.936Z,82.7
2023-02-15T16:17:08.357Z,82.89
2023-02-15T16:18:48.704Z,83.16
2023-02-15T16:20:29.075Z,83.45
2023-02-15T16:22:12.568Z,83.78
2023-02-15T16:23:50.028Z,84.03
2023-02-15T16:25:30.507Z,84.28
2023-02-15T16:27:10.987Z,84.54
2023-02-15T16:28:51.414Z,84.76
2023-02-15T16:30:31.988Z,84.99
2023-02-15T16:32:12.398Z,85.13
2023-02-15T16:33:52.739Z,85.4
2023-02-15T16:35:33.288Z,85.69
2023-02-15T16:37:13.794Z,86.05
2023-02-15T16:38:54.290Z,86.36
2023-02-15T16:40:34.766Z,86.54
2023-02-15T16:42:15.219Z,86.73
2023-02-15T16:43:55.715Z,86.87
2023-02-15T16:45:36.132Z,87.12
2023-02-15T16:47:16.595Z,87.38
2023-02-15T16:48:57.095Z,87.51
2023-02-15T16:50:37.578Z,87.56
2023-02-15T16:52:18.044Z,87.62
2023-02-15T16:53:58.527Z,88.09
2023-02-15T16:55:39.017Z,88.02
2023-02-15T16:57:19.469Z,88.56
2023-02-15T16:58:59.997Z,88.69
2023-02-15T17:00:40.447Z,88.74
2023-02-15T17:02:49.463Z,89.04
2023-02-15T17:04:01.311Z,89.32
2023-02-15T17:05:41.757Z,89.65
2023-02-15T17:07:22.215Z,90.1
2023-02-15T17:09:02.608Z,90.04
2023-02-15T17:10:43.085Z,90.19
2023-02-15T17:12:23.524Z,90.28
2023-02-15T17:14:03.946Z,90.51
2023-02-15T17:15:44.419Z,90.65
2023-02-15T17:17:24.886Z,90.73
2023-02-15T17:19:05.367Z,90.93
2023-02-15T17:20:45.913Z,91.02
2023-02-15T17:22:26.420Z,91.29
2023-02-15T17:24:07.028Z,91.41
2023-02-15T17:25:47.551Z,91.28
2023-02-15T17:27:28.093Z,91.42
2023-02-15T17:29:08.530Z,91.38
2023-02-15T17:30:48.965Z,91.4
2023-02-15T17:32:29.678Z,91.61
2023-02-15T17:34:10.014Z,91.49
2023-02-15T17:35:50.450Z,91.49
2023-02-15T17:37:30.948Z,91.69
2023-02-15T17:39:12.355Z,91.7
2023-02-15T17:40:51.761Z,92.02
2023-02-15T17:42:32.128Z,92.11
2023-02-15T17:44:12.520Z,92.25
2023-02-15T17:45:53.043Z,92.14
2023-02-15T17:47:33.282Z,92.08
2023-02-15T17:49:13.732Z,92.15
2023-02-15T17:50:54.113Z,92.14
2023-02-15T17:52:34.506Z,92.41
2023-02-15T17:54:14.958Z,92.77
2023-02-15T17:55:55.434Z,92.95
2023-02-15T17:57:35.900Z,93.14
2023-02-15T17:59:16.342Z,93.26
2023-02-15T18:00:56.848Z,93.27
2023-02-15T18:02:37.229Z,93.14
2023-02-15T18:04:17.734Z,93.04
2023-02-15T18:05:58.177Z,93.15
2023-02-15T18:07:38.651Z,93.57
2023-02-15T18:09:19.161Z,93.53
2023-02-15T18:10:59.501Z,93.54
2023-02-15T18:12:39.806Z,93.66
2023-02-15T18:14:20.336Z,93.8
2023-02-15T18:16:00.803Z,93.91
2023-02-15T18:17:41.243Z,94.16
2023-02-15T18:19:21.709Z,94.18
2023-02-15T18:21:02.562Z,94.25
2023-02-15T18:22:42.683Z,94.42
2023-02-15T18:24:23.198Z,94.45
2023-02-15T18:26:03.730Z,94.7
2023-02-15T18:27:44.149Z,94.7
2023-02-15T18:29:24.524Z,94.66
2023-02-15T18:31:05.444Z,94.61
2023-02-15T18:32:45.373Z,94.77
2023-02-15T18:34:25.667Z,95.18
2023-02-15T18:36:06.021Z,95.01
2023-02-15T18:37:46.530Z,94.9
2023-02-15T18:39:26.990Z,94.66
2023-02-15T18:41:07.484Z,94.8
2023-02-15T18:42:48.035Z,94.85
2023-02-15T18:44:28.409Z,94.9
2023-02-15T18:46:08.854Z,94.96
2023-02-15T18:47:49.313Z,95.22
2023-02-15T18:49:29.757Z,95.17
2023-02-15T18:51:10.167Z,95.3
2023-02-15T18:52:50.640Z,95.27
2023-02-15T18:54:31.064Z,95.37
2023-02-15T18:56:11.530Z,95.54
2023-02-15T18:57:51.892Z,95.5
2023-02-15T18:59:32.373Z,95.55
2023-02-15T19:01:12.901Z,95.69
2023-02-15T19:02:53.326Z,95.75
2023-02-15T19:04:33.820Z,96.13
2023-02-15T19:06:14.283Z,96.3
2023-02-15T19:07:54.734Z,96.28
2023-02-15T19:09:35.130Z,96.17
2023-02-15T19:11:15.615Z,96.36
2023-02-15T19:12:56.158Z,96.38
2023-02-15T19:14:36.585Z,96.09
2023-02-15T19:16:17.052Z,96.05
2023-02-15T19:17:57.460Z,96.13
2023-02-15T19:19:37.866Z,96.22
2023-02-15T19:21:18.381Z,96.13
2023-02-15T19:22:58.815Z,96.12
2023-02-15T19:24:39.299Z,96.07
2023-02-15T19:26:19.788Z,96.08
2023-02-15T19:28:00.227Z,96.04
2023-02-15T19:29:40.767Z,96.23
2023-02-15T19:31:21.399Z,96.13
2023-02-15T19:33:01.719Z,96.09
2023-02-15T19:34:43.835Z,96.11
2023-02-15T19:36:22.505Z,96.09
2023-02-15T19:38:06.096Z,96.25
2023-02-15T19:39:43.502Z,96.34
2023-02-15T19:41:23.907Z,96.44
2023-02-15T19:43:04.456Z,96.63
2023-02-15T19:46:25.437Z,96.5
2023-02-15T19:48:05.832Z,96.53
2023-02-15T19:49:46.231Z,96.64
2023-02-15T19:51:26.598Z,96.71
2023-02-15T19:53:07.068Z,96.74
2023-02-15T19:54:47.552Z,96.87
2023-02-15T19:56:27.998Z,96.97
2023-02-15T19:58:08.513Z,97.08
2023-02-15T19:59:48.945Z,97.11
2023-02-15T20:01:32.546Z,97.1
2023-02-15T20:03:09.923Z,97.08
2023-02-15T20:04:50.425Z,97.16
2023-02-15T20:06:30.890Z,97.11
2023-02-15T20:08:11.307Z,97.24
2023-02-15T20:09:51.790Z,97.38
2023-02-15T20:11:32.267Z,97.48
2023-02-15T20:13:12.608Z,97.39
2023-02-15T20:14:52.978Z,97.28
2023-02-15T20:16:33.432Z,97.51
2023-02-15T20:18:13.896Z,97.67
2023-02-15T20:19:54.326Z,97.81
2023-02-15T20:21:34.870Z,97.87
2023-02-15T20:23:15.365Z,97.82
2023-02-15T20:24:55.762Z,97.77
2023-02-15T20:26:36.219Z,97.69
2023-02-15T20:28:16.697Z,97.77
2023-02-15T20:29:57.256Z,97.78
2023-02-15T20:31:37.749Z,97.86
2023-02-15T20:33:18.083Z,97.76
2023-02-15T20:34:58.521Z,97.77
2023-02-15T20:36:38.898Z,97.83
2023-02-15T20:38:19.252Z,97.78
2023-02-15T20:39:59.583Z,97.65
2023-02-15T20:41:39.868Z,97.72
2023-02-15T20:43:20.232Z,97.84
2023-02-15T20:45:00.695Z,97.91
2023-02-15T20:46:41.223Z,97.95
2023-02-15T20:48:21.502Z,98.15
2023-02-15T20:50:02.018Z,98.47
2023-02-15T20:51:42.528Z,98.59
2023-02-15T20:53:23.036Z,98.57
2023-02-15T20:55:03.512Z,98.48
2023-02-15T20:56:44.036Z,98.58
2023-02-15T20:58:24.478Z,98.62
2023-02-15T21:00:05.004Z,98.69
2023-02-15T21:01:45.618Z,98.84
2023-02-15T21:03:29.043Z,98.8
2023-02-15T21:05:06.308Z,98.82
2023-02-15T21:06:46.612Z,98.68
2023-02-15T21:08:27.058Z,98.6
2023-02-15T21:10:07.487Z,98.62
2023-02-15T21:11:48.016Z,98.64
2023-02-15T21:13:28.526Z,98.63
2023-02-15T21:15:09.003Z,98.67
2023-02-15T21:16:49.489Z,98.73
2023-02-15T21:18:31.116Z,98.83
2023-02-15T21:20:10.512Z,98.8
2023-02-15T21:21:50.974Z,98.61
2023-02-15T21:23:31.364Z,98.57
2023-02-15T21:25:11.838Z,98.42
2023-02-15T21:26:52.387Z,98.25
2023-02-15T21:28:32.703Z,98.12
2023-02-15T21:30:13.153Z,98.14
2023-02-15T21:31:53.805Z,98.17
2023-02-15T21:33:34.208Z,98.08
2023-02-15T21:35:14.768Z,98.18
2023-02-15T21:36:55.283Z,98.15
2023-02-15T21:38:35.798Z,98.23
2023-02-15T21:40:16.359Z,98.3
2023-02-15T21:41:56.849Z,98.27
2023-02-15T21:43:37.259Z,98.26
2023-02-15T21:45:17.777Z,98.33
2023-02-15T21:46:58.200Z,98.38
2023-02-15T21:48:38.672Z,98.4